Arnold AFB, Tennessee
Current Conditions -  °F | °C
As of 4:55 PM on Tuesday 21 Oct 2014 (Local Time) from KTHA Reporting Station
Clear Clear  
Wind Chill: 19°   Ceiling: Unl
Heat Index: 19°   Visibility: 10mi
Dew Point:   Wind: 8mph
Humidity: 43%   Direction: 350°N
Pressure: 30.03"   Gusts: NA
Location:  35.36°N, 86.21°W
Report Text: KTHA 212155Z AUTO 35007KT 10SM CLR 19/06 A3003 RMK
Loading
Personal Weather Stations






























Interactive Weather Map
Tropical Storm Tracking
New forecast layout! Learn more

10-Day Weather Forecast

Advertisements
Track Severe Weather on mobile